createdAt,value
2023-01-18T00:03:33.640Z,1.30
2023-01-18T00:06:20.875Z,1.58
2023-01-18T00:09:08.074Z,1.05
2023-01-18T00:11:55.169Z,1.13
2023-01-18T00:14:42.275Z,1.10
2023-01-18T00:17:29.361Z,1.48
2023-01-18T00:20:17.021Z,1.50
2023-01-18T00:23:04.633Z,1.20
2023-01-18T00:25:51.761Z,1.10
2023-01-18T00:28:40.166Z,1.30
2023-01-18T00:31:27.351Z,1.10
2023-01-18T00:34:14.431Z,1.33
2023-01-18T00:37:01.445Z,1.17
2023-01-18T00:39:48.531Z,1.30
2023-01-18T00:42:54.840Z,1.30
2023-01-18T00:45:43.072Z,1.20
2023-01-18T00:48:30.265Z,1.38
2023-01-18T00:51:23.248Z,1.52
2023-01-18T00:54:10.354Z,1.33
2023-01-18T00:56:57.425Z,1.20
2023-01-18T00:59:46.741Z,1.30
2023-01-18T01:02:35.477Z,1.20
2023-01-18T01:05:44.049Z,1.40
2023-01-18T01:08:31.140Z,1.48
2023-01-18T01:11:18.250Z,1.90
2023-01-18T01:14:24.314Z,1.48
2023-01-18T01:17:29.863Z,1.50
2023-01-18T01:20:35.637Z,1.33
2023-01-18T01:23:43.229Z,1.52
2023-01-18T01:26:30.302Z,1.60
2023-01-18T01:29:17.761Z,1.60
2023-01-18T01:32:06.061Z,1.70
2023-01-18T01:34:53.141Z,1.67
2023-01-18T01:37:40.248Z,1.67
2023-01-18T01:40:27.451Z,2.00
2023-01-18T01:43:14.552Z,2.10
2023-01-18T01:46:02.829Z,1.67
2023-01-18T01:48:59.353Z,2.08
2023-01-18T01:51:51.103Z,2.30
2023-01-18T01:54:50.266Z,2.35
2023-01-18T01:57:59.213Z,2.42
2023-01-18T02:00:46.424Z,2.15
2023-01-18T02:03:33.509Z,2.08
2023-01-18T02:06:32.733Z,2.08
2023-01-18T02:09:23.414Z,2.47
2023-01-18T02:12:10.520Z,2.28
2023-01-18T02:14:59.374Z,2.97
2023-01-18T02:17:54.402Z,2.70
2023-01-18T02:21:08.684Z,3.13
2023-01-18T02:24:28.089Z,3.47
2023-01-18T02:27:22.532Z,2.80
2023-01-18T02:30:14.733Z,3.08
2023-01-18T02:33:10.911Z,2.70
2023-01-18T02:36:04.002Z,2.85
2023-01-18T02:38:56.146Z,2.90
2023-01-18T02:42:07.421Z,2.92
2023-01-18T02:45:12.992Z,3.00
2023-01-18T02:48:01.024Z,3.00
2023-01-18T02:50:48.543Z,2.97
2023-01-18T02:53:41.458Z,2.92
2023-01-18T02:56:44.012Z,2.60
2023-01-18T02:59:41.480Z,2.40
2023-01-18T03:02:28.732Z,2.20
2023-01-18T03:05:16.954Z,2.60
2023-01-18T03:08:11.251Z,2.13
2023-01-18T03:11:04.922Z,2.50
2023-01-18T03:14:01.793Z,2.67
2023-01-18T03:16:58.116Z,2.40
2023-01-18T03:20:05.954Z,2.60
2023-01-18T03:23:24.756Z,2.45
2023-01-18T03:26:16.546Z,2.60
2023-01-18T03:29:24.233Z,2.45
2023-01-18T03:32:33.944Z,2.25
2023-01-18T03:35:27.300Z,2.28
2023-01-18T03:38:16.584Z,2.50
2023-01-18T03:41:05.315Z,2.47
2023-01-18T03:43:55.004Z,2.88
2023-01-18T03:46:43.964Z,2.78
2023-01-18T03:49:33.419Z,2.60
2023-01-18T03:52:40.788Z,2.70
2023-01-18T03:55:56.729Z,2.67
2023-01-18T03:58:45.783Z,2.70
2023-01-18T04:01:33.065Z,3.00
2023-01-18T04:04:20.253Z,2.78
2023-01-18T04:07:07.432Z,2.97
2023-01-18T04:09:54.567Z,2.85
2023-01-18T04:12:41.705Z,2.60
2023-01-18T04:15:28.791Z,2.80
2023-01-18T04:18:16.047Z,2.55
2023-01-18T04:21:03.106Z,3.08
2023-01-18T04:23:50.282Z,2.63
2023-01-18T04:26:38.028Z,2.90
2023-01-18T04:29:25.189Z,2.85
2023-01-18T04:32:12.290Z,2.63
2023-01-18T04:34:59.304Z,3.25
2023-01-18T04:37:52.465Z,3.47
2023-01-18T04:40:39.609Z,2.78
2023-01-18T04:43:26.701Z,3.35
2023-01-18T04:46:15.470Z,3.70
2023-01-18T04:49:02.608Z,4.05
2023-01-18T04:51:49.686Z,4.20
2023-01-18T04:54:36.909Z,4.28
2023-01-18T04:57:23.996Z,4.22
2023-01-18T05:00:15.880Z,5.15
2023-01-18T05:03:02.974Z,5.20
2023-01-18T05:05:50.041Z,5.10
2023-01-18T05:08:41.126Z,5.10
2023-01-18T05:11:28.304Z,5.15
2023-01-18T05:14:15.337Z,5.13
2023-01-18T05:17:02.596Z,4.70
2023-01-18T05:19:49.733Z,6.65
2023-01-18T05:22:37.393Z,6.03
2023-01-18T05:25:24.615Z,8.32
2023-01-18T05:28:11.850Z,5.90
2023-01-18T05:30:58.947Z,4.50
2023-01-18T05:33:45.993Z,3.80
2023-01-18T05:36:33.128Z,3.72
2023-01-18T05:39:20.180Z,4.00
2023-01-18T05:42:07.452Z,3.78
2023-01-18T05:44:54.557Z,3.97
2023-01-18T05:47:41.811Z,3.88
2023-01-18T05:50:28.871Z,4.53
2023-01-18T05:53:19.216Z,4.20
2023-01-18T05:56:07.972Z,4.13
2023-01-18T05:58:55.098Z,4.53
2023-01-18T06:01:42.688Z,3.80
2023-01-18T06:04:29.808Z,4.55
2023-01-18T06:07:17.180Z,4.60
2023-01-18T06:10:05.118Z,4.45
2023-01-18T06:12:52.230Z,4.70
2023-01-18T06:15:39.544Z,4.72
2023-01-18T06:18:29.995Z,5.25
2023-01-18T06:21:18.095Z,5.53
2023-01-18T06:24:06.556Z,4.70
2023-01-18T06:26:54.656Z,4.88
2023-01-18T06:32:52.301Z,4.68
2023-01-18T06:35:39.784Z,5.10
2023-01-18T06:38:27.032Z,4.50
2023-01-18T06:41:15.416Z,4.50
2023-01-18T06:44:02.466Z,4.07
2023-01-18T06:46:49.508Z,4.35
2023-01-18T06:49:36.551Z,4.90
2023-01-18T06:52:25.891Z,4.32
2023-01-18T06:55:14.564Z,4.50
2023-01-18T06:58:02.789Z,4.30
2023-01-18T07:00:50.042Z,4.38
2023-01-18T07:03:43.211Z,5.05
2023-01-18T07:06:30.425Z,5.88
2023-01-18T07:09:17.551Z,4.72
2023-01-18T07:12:04.960Z,4.95
2023-01-18T07:14:52.045Z,5.32
2023-01-18T07:17:39.138Z,4.70
2023-01-18T07:20:26.212Z,4.57
2023-01-18T07:23:13.242Z,4.70
2023-01-18T07:26:12.629Z,5.32
2023-01-18T07:29:00.177Z,4.82
2023-01-18T07:31:47.390Z,4.95
2023-01-18T07:34:34.561Z,5.28
2023-01-18T07:37:21.591Z,4.72
2023-01-18T07:40:10.720Z,4.82
2023-01-18T07:42:58.651Z,4.88
2023-01-18T07:45:53.982Z,5.22
2023-01-18T07:48:41.085Z,4.70
2023-01-18T07:51:28.283Z,4.95
2023-01-18T07:54:17.320Z,5.30
2023-01-18T07:57:04.398Z,5.45
2023-01-18T07:59:51.868Z,4.88
2023-01-18T08:02:39.172Z,4.82
2023-01-18T08:05:27.859Z,5.45
2023-01-18T08:08:17.008Z,5.10
2023-01-18T08:11:06.443Z,4.90
2023-01-18T08:13:53.588Z,5.22
2023-01-18T08:16:40.657Z,5.60
2023-01-18T08:19:27.759Z,4.60
2023-01-18T08:22:14.840Z,5.28
2023-01-18T08:25:02.546Z,5.03
2023-01-18T08:27:49.723Z,4.80
2023-01-18T08:30:42.876Z,5.13
2023-01-18T08:33:30.039Z,5.10
2023-01-18T08:36:23.633Z,5.72
2023-01-18T08:39:12.956Z,5.32
2023-01-18T08:41:59.997Z,5.37
2023-01-18T08:44:48.694Z,4.95
2023-01-18T08:47:36.117Z,4.63
2023-01-18T08:50:23.470Z,4.82
2023-01-18T08:53:10.677Z,5.00
2023-01-18T08:55:58.284Z,5.28
2023-01-18T08:58:45.429Z,5.20
2023-01-18T09:01:32.658Z,5.70
2023-01-18T09:04:19.768Z,5.60
2023-01-18T09:07:06.877Z,5.57
2023-01-18T09:09:53.972Z,4.75
2023-01-18T09:12:41.071Z,5.60
2023-01-18T09:15:29.407Z,5.95
2023-01-18T09:18:16.443Z,5.35
2023-01-18T09:21:08.941Z,5.40
2023-01-18T09:23:56.036Z,5.75
2023-01-18T09:26:45.243Z,4.95
2023-01-18T09:29:32.500Z,5.20
2023-01-18T09:32:21.293Z,6.15
2023-01-18T09:35:08.794Z,5.15
2023-01-18T09:37:57.043Z,5.53
2023-01-18T09:40:45.473Z,5.43
2023-01-18T09:43:39.814Z,4.93
2023-01-18T09:46:28.257Z,6.15
2023-01-18T09:49:46.203Z,5.82
2023-01-18T09:52:33.176Z,5.95
2023-01-18T09:55:36.910Z,5.78
2023-01-18T09:59:21.006Z,5.05
2023-01-18T10:02:19.929Z,5.13
2023-01-18T10:05:11.054Z,5.70
2023-01-18T10:08:13.553Z,5.25
2023-01-18T10:11:09.983Z,5.72
2023-01-18T10:14:15.392Z,5.05
2023-01-18T10:17:11.788Z,5.47
2023-01-18T10:20:00.837Z,4.70
2023-01-18T10:23:15.742Z,4.80
2023-01-18T10:26:09.371Z,4.05
2023-01-18T10:29:12.574Z,4.05
2023-01-18T10:32:12.785Z,2.80
2023-01-18T10:37:47.758Z,2.92
2023-01-18T10:40:37.766Z,2.65
2023-01-18T10:43:27.244Z,2.60
2023-01-18T10:46:17.164Z,2.50
2023-01-18T10:49:04.596Z,2.13
2023-01-18T10:51:51.756Z,1.42
2023-01-18T10:54:40.483Z,1.60
2023-01-18T10:57:35.014Z,1.27
2023-01-18T11:00:35.367Z,0.90
2023-01-18T11:03:23.443Z,0.98
2023-01-18T11:06:11.215Z,0.82
2023-01-18T11:08:58.248Z,0.80
2023-01-18T11:12:03.635Z,0.70
2023-01-18T11:14:50.712Z,1.20
2023-01-18T11:17:37.778Z,0.90
2023-01-18T11:20:30.189Z,1.30
2023-01-18T11:23:35.797Z,1.00
2023-01-18T11:26:24.154Z,0.80
2023-01-18T11:29:14.995Z,0.75
2023-01-18T11:32:09.700Z,0.60
2023-01-18T11:35:00.336Z,0.60
2023-01-18T11:37:49.031Z,0.55
2023-01-18T11:40:36.252Z,0.50
2023-01-18T11:43:28.020Z,0.80
2023-01-18T11:46:30.302Z,0.68
2023-01-18T11:49:26.390Z,0.50
2023-01-18T11:52:24.144Z,0.60
2023-01-18T11:55:23.785Z,0.60
2023-01-18T11:58:30.220Z,1.00
2023-01-18T12:01:46.073Z,0.60
2023-01-18T12:05:10.707Z,0.55
2023-01-18T12:07:59.422Z,0.63
2023-01-18T12:11:11.328Z,0.40
2023-01-18T12:14:06.195Z,0.35
2023-01-18T12:17:14.545Z,0.70
2023-01-18T12:20:27.465Z,0.70
2023-01-18T12:23:49.300Z,0.50
2023-01-18T12:27:29.829Z,0.40
2023-01-18T12:30:28.942Z,0.60
2023-01-18T12:33:42.548Z,0.55
2023-01-18T12:37:01.888Z,0.43
2023-01-18T12:40:10.608Z,0.95
2023-01-18T12:43:11.799Z,0.90
2023-01-18T12:46:07.599Z,1.23
2023-01-18T12:49:22.108Z,0.50
2023-01-18T12:52:18.865Z,0.60
2023-01-18T12:55:08.401Z,0.28
2023-01-18T12:58:01.419Z,0.93
2023-01-18T13:01:02.713Z,1.00
2023-01-18T13:03:54.121Z,1.33
2023-01-18T13:06:42.929Z,0.40
2023-01-18T13:09:37.187Z,0.70
2023-01-18T13:12:25.755Z,0.47
2023-01-18T13:15:21.974Z,0.50
2023-01-18T13:18:37.486Z,0.40
2023-01-18T13:21:57.032Z,1.77
2023-01-18T13:25:09.214Z,0.60
2023-01-18T13:28:05.812Z,0.30
2023-01-18T13:31:02.194Z,0.20
2023-01-18T13:33:57.599Z,0.75
2023-01-18T13:36:46.678Z,0.30
2023-01-18T13:39:44.905Z,0.50
2023-01-18T13:42:38.346Z,0.35
2023-01-18T13:45:29.095Z,0.52
2023-01-18T13:48:41.653Z,1.50
2023-01-18T13:51:40.908Z,1.42
2023-01-18T13:54:28.700Z,0.50
2023-01-18T13:57:19.079Z,1.42
2023-01-18T14:00:07.636Z,0.60
2023-01-18T14:03:06.360Z,0.45
2023-01-18T14:05:57.299Z,0.32
2023-01-18T14:09:07.364Z,0.45
2023-01-18T14:11:57.131Z,0.45
2023-01-18T14:14:54.675Z,0.30
2023-01-18T14:17:57.740Z,0.38
2023-01-18T14:20:51.996Z,0.50
2023-01-18T14:24:02.534Z,0.40
2023-01-18T14:26:53.911Z,0.22
2023-01-18T14:29:49.664Z,0.30
2023-01-18T14:32:47.337Z,0.50
2023-01-18T14:38:21.939Z,0.80
2023-01-18T14:41:24.506Z,0.60
2023-01-18T14:44:48.684Z,0.30
2023-01-18T14:47:45.053Z,0.57
2023-01-18T14:50:36.571Z,0.40
2023-01-18T14:53:27.164Z,0.60
2023-01-18T14:56:16.952Z,0.32
2023-01-18T14:59:24.582Z,0.47
2023-01-18T15:02:19.184Z,0.43
2023-01-18T15:05:21.059Z,0.40
2023-01-18T15:08:10.482Z,0.35
2023-01-18T15:10:58.481Z,0.80
2023-01-18T15:13:50.467Z,0.50
2023-01-18T15:16:37.880Z,0.40
2023-01-18T15:19:33.557Z,0.28
2023-01-18T15:22:24.481Z,0.32
2023-01-18T15:25:24.500Z,0.40
2023-01-18T15:28:23.306Z,0.55
2023-01-18T15:31:16.544Z,0.52
2023-01-18T15:34:03.901Z,0.40
2023-01-18T15:36:51.411Z,0.50
2023-01-18T15:39:58.268Z,0.40
2023-01-18T15:42:50.196Z,0.50
2023-01-18T15:45:40.706Z,0.60
2023-01-18T15:48:34.183Z,0.50
2023-01-18T15:51:22.951Z,0.55
2023-01-18T15:54:18.446Z,0.40
2023-01-18T15:57:18.110Z,0.70
2023-01-18T16:00:06.070Z,0.57
2023-01-18T16:02:53.588Z,0.60
2023-01-18T16:05:40.673Z,0.70
2023-01-18T16:08:27.842Z,0.65
2023-01-18T16:11:33.718Z,0.47
2023-01-18T16:14:33.406Z,0.73
2023-01-18T16:17:23.089Z,0.90
2023-01-18T16:20:16.924Z,0.80
2023-01-18T16:23:18.100Z,0.98
2023-01-18T16:26:05.975Z,0.77
2023-01-18T16:28:53.675Z,0.88
2023-01-18T16:31:43.983Z,0.60
2023-01-18T16:34:31.083Z,0.50
2023-01-18T16:37:18.795Z,0.50
2023-01-18T16:40:06.796Z,0.70
2023-01-18T16:43:03.941Z,0.80
2023-01-18T16:45:54.924Z,0.57
2023-01-18T16:48:42.409Z,0.63
2023-01-18T16:51:33.662Z,1.00
2023-01-18T16:54:21.045Z,0.90
2023-01-18T16:57:18.713Z,1.00
2023-01-18T17:00:21.290Z,1.00
2023-01-18T17:03:08.421Z,1.52
2023-01-18T17:05:56.117Z,1.45
2023-01-18T17:08:44.112Z,1.40
2023-01-18T17:11:31.327Z,2.35
2023-01-18T17:14:19.806Z,1.60
2023-01-18T17:17:11.224Z,2.13
2023-01-18T17:19:59.131Z,2.70
2023-01-18T17:22:46.631Z,2.78
2023-01-18T17:25:37.401Z,2.22
2023-01-18T17:28:26.807Z,1.95
2023-01-18T17:31:14.680Z,1.45
2023-01-18T17:34:02.428Z,1.95
2023-01-18T17:36:49.652Z,1.73
2023-01-18T17:39:49.651Z,2.22
2023-01-18T17:42:38.662Z,3.03
2023-01-18T17:45:27.653Z,4.28
2023-01-18T17:48:15.422Z,5.82
2023-01-18T17:51:10.253Z,6.13
2023-01-18T17:54:00.698Z,5.82
2023-01-18T17:56:48.304Z,4.90
2023-01-18T17:59:37.065Z,5.18
2023-01-18T18:02:25.867Z,5.93
2023-01-18T18:05:13.575Z,6.90
2023-01-18T18:08:01.594Z,6.50
2023-01-18T18:10:49.784Z,5.15
2023-01-18T18:13:38.283Z,5.00
2023-01-18T18:16:26.517Z,5.10
2023-01-18T18:19:15.321Z,4.93
2023-01-18T18:22:04.891Z,4.93
2023-01-18T18:24:55.522Z,5.30
2023-01-18T18:27:47.048Z,4.57
2023-01-18T18:30:35.227Z,4.90
2023-01-18T18:33:23.534Z,4.85
2023-01-18T18:36:11.711Z,5.75
2023-01-18T18:39:06.965Z,5.57
2023-01-18T18:41:55.067Z,5.93
2023-01-18T18:44:42.929Z,5.70
2023-01-18T18:47:30.831Z,6.53
2023-01-18T18:50:19.175Z,7.25
2023-01-18T18:53:06.683Z,6.70
2023-01-18T18:56:00.737Z,6.43
2023-01-18T18:58:51.693Z,5.80
2023-01-18T19:01:40.178Z,6.55
2023-01-18T19:04:28.458Z,5.72
2023-01-18T19:07:18.833Z,5.30
2023-01-18T19:10:07.582Z,5.05
2023-01-18T19:12:55.951Z,2.88
2023-01-18T19:15:51.851Z,2.08
2023-01-18T19:18:41.299Z,2.63
2023-01-18T19:21:29.393Z,3.88
2023-01-18T19:24:18.415Z,5.03
2023-01-18T19:27:06.661Z,4.55
2023-01-18T19:29:56.163Z,4.65
2023-01-18T19:32:43.936Z,4.15
2023-01-18T19:35:32.135Z,3.95
2023-01-18T19:38:20.274Z,4.38
2023-01-18T19:41:11.727Z,4.10
2023-01-18T19:43:59.468Z,4.20
2023-01-18T19:46:47.488Z,4.13
2023-01-18T19:49:35.455Z,4.28
2023-01-18T19:52:24.009Z,4.63
2023-01-18T19:55:11.412Z,5.57
2023-01-18T19:58:01.556Z,4.63
2023-01-18T20:00:49.740Z,5.55
2023-01-18T20:03:37.663Z,3.67
2023-01-18T20:06:25.711Z,3.58
2023-01-18T20:09:19.902Z,4.20
2023-01-18T20:12:10.360Z,3.42
2023-01-18T20:15:00.693Z,3.28
2023-01-18T20:17:48.518Z,3.13
2023-01-18T20:20:37.641Z,3.00
2023-01-18T20:23:25.644Z,4.07
2023-01-18T20:26:20.035Z,4.20
2023-01-18T20:29:14.580Z,7.28
2023-01-18T20:32:15.184Z,4.03
2023-01-18T20:35:04.004Z,6.05
2023-01-18T20:37:53.792Z,4.93
2023-01-18T20:40:41.741Z,4.47
2023-01-18T20:43:30.650Z,4.60
2023-01-18T20:46:18.289Z,5.63
2023-01-18T20:49:06.040Z,5.57
2023-01-18T20:51:53.778Z,5.38
2023-01-18T20:54:42.092Z,5.72
2023-01-18T20:57:33.130Z,6.63
2023-01-18T21:00:21.221Z,5.78
2023-01-18T21:03:10.770Z,6.40
2023-01-18T21:05:58.094Z,6.05
2023-01-18T21:08:46.613Z,5.65
2023-01-18T21:11:33.756Z,5.75
2023-01-18T21:14:21.515Z,6.03
2023-01-18T21:17:09.461Z,6.03
2023-01-18T21:19:56.830Z,5.55
2023-01-18T21:22:44.320Z,7.50
2023-01-18T21:25:31.464Z,5.63
2023-01-18T21:28:19.772Z,5.80
2023-01-18T21:31:07.842Z,5.45
2023-01-18T21:33:55.192Z,5.20
2023-01-18T21:36:42.238Z,5.45
2023-01-18T21:39:29.385Z,4.85
2023-01-18T21:42:34.925Z,5.38
2023-01-18T21:45:40.661Z,5.40
2023-01-18T21:48:30.326Z,5.18
2023-01-18T21:51:36.050Z,4.63
2023-01-18T21:54:23.344Z,5.00
2023-01-18T21:57:10.438Z,4.97
2023-01-18T21:59:57.567Z,4.63
2023-01-18T22:02:44.634Z,4.85
2023-01-18T22:05:31.864Z,5.10
2023-01-18T22:08:18.946Z,5.70
2023-01-18T22:11:06.083Z,5.05
2023-01-18T22:13:53.230Z,4.95
2023-01-18T22:16:40.547Z,5.25
2023-01-18T22:19:27.643Z,6.18
2023-01-18T22:22:15.227Z,6.90
2023-01-18T22:25:02.432Z,5.60
2023-01-18T22:27:49.680Z,8.35
2023-01-18T22:30:36.772Z,5.30
2023-01-18T22:33:23.975Z,5.53
2023-01-18T22:39:14.025Z,5.50
2023-01-18T22:42:01.147Z,5.35
2023-01-18T22:44:48.231Z,5.38
2023-01-18T22:47:35.273Z,5.60
2023-01-18T22:50:22.410Z,6.57
2023-01-18T22:53:09.543Z,5.43
2023-01-18T22:56:02.994Z,4.38
2023-01-18T22:58:50.645Z,5.22
2023-01-18T23:01:37.679Z,6.03
2023-01-18T23:04:24.901Z,6.10
2023-01-18T23:07:14.297Z,5.38
2023-01-18T23:10:01.498Z,5.55
2023-01-18T23:12:48.574Z,5.65
2023-01-18T23:15:54.235Z,9.45
2023-01-18T23:18:41.447Z,5.70
2023-01-18T23:21:28.479Z,7.40
2023-01-18T23:24:15.805Z,5.47
2023-01-18T23:27:04.591Z,5.68
2023-01-18T23:29:57.321Z,5.60
2023-01-18T23:32:44.689Z,5.60
2023-01-18T23:35:31.764Z,5.72
2023-01-18T23:38:18.824Z,6.03
2023-01-18T23:41:24.791Z,5.55
2023-01-18T23:44:30.615Z,6.07
2023-01-18T23:47:36.204Z,33.22
2023-01-18T23:50:42.288Z,6.95
2023-01-18T23:53:47.880Z,5.53
2023-01-18T23:56:35.180Z,6.00
2023-01-18T23:59:22.356Z,5.38
